sensor_id;sensor_type;location;lat;lon;timestamp;P1;durP1;ratioP1;P2;durP2;ratioP2
36009;SDS011;22076;52.182;5.404;2023-06-01T00:00:29;9.93;;;5.47;;
36009;SDS011;22076;52.182;5.404;2023-06-01T00:02:55;11.02;;;5.97;;
36009;SDS011;22076;52.182;5.404;2023-06-01T00:05:22;10.85;;;5.20;;
36009;SDS011;22076;52.182;5.404;2023-06-01T00:07:48;11.88;;;5.43;;
36009;SDS011;22076;52.182;5.404;2023-06-01T00:10:16;10.43;;;5.75;;
36009;SDS011;22076;52.182;5.404;2023-06-01T00:12:44;13.32;;;6.10;;
36009;SDS011;22076;52.182;5.404;2023-06-01T00:15:10;8.57;;;4.85;;
36009;SDS011;22076;52.182;5.404;2023-06-01T00:17:37;10.93;;;5.40;;
36009;SDS011;22076;52.182;5.404;2023-06-01T00:20:03;14.43;;;6.18;;
36009;SDS011;22076;52.182;5.404;2023-06-01T00:22:33;11.10;;;6.20;;
36009;SDS011;22076;52.182;5.404;2023-06-01T00:25:03;12.95;;;6.40;;
36009;SDS011;22076;52.182;5.404;2023-06-01T00:27:31;10.50;;;5.32;;
36009;SDS011;22076;52.182;5.404;2023-06-01T00:29:58;14.98;;;5.57;;
36009;SDS011;22076;52.182;5.404;2023-06-01T00:32:25;9.85;;;5.57;;
36009;SDS011;22076;52.182;5.404;2023-06-01T00:34:51;15.75;;;5.85;;
36009;SDS011;22076;52.182;5.404;2023-06-01T00:37:18;12.30;;;5.68;;
36009;SDS011;22076;52.182;5.404;2023-06-01T00:39:44;10.45;;;4.68;;
36009;SDS011;22076;52.182;5.404;2023-06-01T00:42:11;10.90;;;5.13;;
36009;SDS011;22076;52.182;5.404;2023-06-01T00:44:37;8.73;;;5.53;;
36009;SDS011;22076;52.182;5.404;2023-06-01T00:47:06;12.70;;;5.53;;
36009;SDS011;22076;52.182;5.404;2023-06-01T00:49:33;12.60;;;5.40;;
36009;SDS011;22076;52.182;5.404;2023-06-01T00:51:59;13.52;;;5.43;;
36009;SDS011;22076;52.182;5.404;2023-06-01T00:54:26;12.55;;;5.53;;
36009;SDS011;22076;52.182;5.404;2023-06-01T00:56:53;11.52;;;5.75;;
36009;SDS011;22076;52.182;5.404;2023-06-01T00:59:19;14.57;;;5.05;;
36009;SDS011;22076;52.182;5.404;2023-06-01T01:01:46;11.93;;;4.40;;
36009;SDS011;22076;52.182;5.404;2023-06-01T01:04:13;11.93;;;5.10;;
36009;SDS011;22076;52.182;5.404;2023-06-01T01:06:57;7.32;;;4.20;;
36009;SDS011;22076;52.182;5.404;2023-06-01T01:09:31;16.60;;;5.20;;
36009;SDS011;22076;52.182;5.404;2023-06-01T01:12:01;9.02;;;4.93;;
36009;SDS011;22076;52.182;5.404;2023-06-01T01:14:34;11.45;;;5.10;;
36009;SDS011;22076;52.182;5.404;2023-06-01T01:17:05;11.55;;;4.90;;
36009;SDS011;22076;52.182;5.404;2023-06-01T01:19:52;12.23;;;4.80;;
36009;SDS011;22076;52.182;5.404;2023-06-01T01:22:25;15.02;;;5.88;;
36009;SDS011;22076;52.182;5.404;2023-06-01T01:25:20;10.80;;;5.55;;
36009;SDS011;22076;52.182;5.404;2023-06-01T01:27:54;10.35;;;5.00;;
36009;SDS011;22076;52.182;5.404;2023-06-01T01:30:32;13.43;;;5.47;;
36009;SDS011;22076;52.182;5.404;2023-06-01T01:33:02;14.18;;;5.18;;
36009;SDS011;22076;52.182;5.404;2023-06-01T01:35:29;11.02;;;5.50;;
36009;SDS011;22076;52.182;5.404;2023-06-01T01:37:56;11.50;;;5.53;;
36009;SDS011;22076;52.182;5.404;2023-06-01T01:40:23;14.82;;;5.07;;
36009;SDS011;22076;52.182;5.404;2023-06-01T01:42:50;10.70;;;5.53;;
36009;SDS011;22076;52.182;5.404;2023-06-01T01:45:17;10.07;;;5.03;;
36009;SDS011;22076;52.182;5.404;2023-06-01T01:47:48;14.55;;;5.82;;
36009;SDS011;22076;52.182;5.404;2023-06-01T01:52:45;12.98;;;6.10;;
36009;SDS011;22076;52.182;5.404;2023-06-01T01:55:12;11.32;;;5.47;;
36009;SDS011;22076;52.182;5.404;2023-06-01T01:57:40;12.50;;;5.82;;
36009;SDS011;22076;52.182;5.404;2023-06-01T02:00:08;13.13;;;6.35;;
36009;SDS011;22076;52.182;5.404;2023-06-01T02:02:36;11.45;;;6.00;;
36009;SDS011;22076;52.182;5.404;2023-06-01T02:05:05;9.23;;;5.40;;
36009;SDS011;22076;52.182;5.404;2023-06-01T02:07:32;13.50;;;5.78;;
36009;SDS011;22076;52.182;5.404;2023-06-01T02:09:59;11.50;;;5.82;;
36009;SDS011;22076;52.182;5.404;2023-06-01T02:12:26;8.30;;;4.85;;
36009;SDS011;22076;52.182;5.404;2023-06-01T02:14:52;10.73;;;5.63;;
36009;SDS011;22076;52.182;5.404;2023-06-01T02:17:19;13.57;;;5.88;;
36009;SDS011;22076;52.182;5.404;2023-06-01T02:19:46;11.27;;;5.35;;
36009;SDS011;22076;52.182;5.404;2023-06-01T02:22:14;11.23;;;5.07;;
36009;SDS011;22076;52.182;5.404;2023-06-01T02:24:41;11.63;;;5.70;;
36009;SDS011;22076;52.182;5.404;2023-06-01T02:27:07;13.43;;;6.40;;
36009;SDS011;22076;52.182;5.404;2023-06-01T02:29:34;15.00;;;5.90;;
36009;SDS011;22076;52.182;5.404;2023-06-01T02:32:00;14.02;;;6.85;;
36009;SDS011;22076;52.182;5.404;2023-06-01T02:34:27;12.32;;;6.35;;
36009;SDS011;22076;52.182;5.404;2023-06-01T02:36:53;11.55;;;6.68;;
36009;SDS011;22076;52.182;5.404;2023-06-01T02:39:22;14.85;;;6.80;;
36009;SDS011;22076;52.182;5.404;2023-06-01T02:41:48;13.73;;;7.05;;
36009;SDS011;22076;52.182;5.404;2023-06-01T02:44:15;10.20;;;5.70;;
36009;SDS011;22076;52.182;5.404;2023-06-01T02:46:42;16.67;;;6.78;;
36009;SDS011;22076;52.182;5.404;2023-06-01T02:49:09;13.25;;;6.13;;
36009;SDS011;22076;52.182;5.404;2023-06-01T02:51:35;14.38;;;6.85;;
36009;SDS011;22076;52.182;5.404;2023-06-01T02:54:02;11.95;;;6.07;;
36009;SDS011;22076;52.182;5.404;2023-06-01T02:56:30;15.18;;;6.07;;
36009;SDS011;22076;52.182;5.404;2023-06-01T02:58:56;10.93;;;5.55;;
36009;SDS011;22076;52.182;5.404;2023-06-01T03:01:23;15.65;;;6.65;;
36009;SDS011;22076;52.182;5.404;2023-06-01T03:03:49;15.43;;;6.47;;
36009;SDS011;22076;52.182;5.404;2023-06-01T03:06:17;15.55;;;7.03;;
36009;SDS011;22076;52.182;5.404;2023-06-01T03:08:46;11.93;;;6.53;;
36009;SDS011;22076;52.182;5.404;2023-06-01T03:11:13;12.02;;;6.95;;
36009;SDS011;22076;52.182;5.404;2023-06-01T03:13:40;15.82;;;8.25;;
36009;SDS011;22076;52.182;5.404;2023-06-01T03:16:07;13.88;;;7.43;;
36009;SDS011;22076;52.182;5.404;2023-06-01T03:18:33;18.20;;;7.35;;
36009;SDS011;22076;52.182;5.404;2023-06-01T03:21:00;16.50;;;7.22;;
36009;SDS011;22076;52.182;5.404;2023-06-01T03:23:27;13.57;;;6.85;;
36009;SDS011;22076;52.182;5.404;2023-06-01T03:25:55;12.90;;;7.07;;
36009;SDS011;22076;52.182;5.404;2023-06-01T03:28:22;13.70;;;6.45;;
36009;SDS011;22076;52.182;5.404;2023-06-01T03:30:50;12.18;;;6.88;;
36009;SDS011;22076;52.182;5.404;2023-06-01T03:33:16;14.57;;;7.65;;
36009;SDS011;22076;52.182;5.404;2023-06-01T03:35:43;13.98;;;7.22;;
36009;SDS011;22076;52.182;5.404;2023-06-01T03:38:12;12.65;;;6.22;;
36009;SDS011;22076;52.182;5.404;2023-06-01T03:40:39;12.80;;;7.55;;
36009;SDS011;22076;52.182;5.404;2023-06-01T03:43:05;15.18;;;7.13;;
36009;SDS011;22076;52.182;5.404;2023-06-01T03:45:32;15.45;;;7.07;;
36009;SDS011;22076;52.182;5.404;2023-06-01T03:48:00;15.07;;;7.18;;
36009;SDS011;22076;52.182;5.404;2023-06-01T03:50:27;17.13;;;7.13;;
36009;SDS011;22076;52.182;5.404;2023-06-01T03:52:53;14.93;;;7.03;;
36009;SDS011;22076;52.182;5.404;2023-06-01T03:55:20;13.10;;;5.88;;
36009;SDS011;22076;52.182;5.404;2023-06-01T03:57:47;14.88;;;6.82;;
36009;SDS011;22076;52.182;5.404;2023-06-01T04:00:14;12.27;;;6.35;;
36009;SDS011;22076;52.182;5.404;2023-06-01T04:02:45;14.27;;;6.90;;
36009;SDS011;22076;52.182;5.404;2023-06-01T04:05:14;16.20;;;7.22;;
36009;SDS011;22076;52.182;5.404;2023-06-01T04:07:42;18.30;;;5.80;;
36009;SDS011;22076;52.182;5.404;2023-06-01T04:10:10;15.05;;;6.40;;
36009;SDS011;22076;52.182;5.404;2023-06-01T04:12:38;12.88;;;5.95;;
36009;SDS011;22076;52.182;5.404;2023-06-01T04:15:05;17.98;;;6.40;;
36009;SDS011;22076;52.182;5.404;2023-06-01T04:17:35;12.43;;;5.30;;
36009;SDS011;22076;52.182;5.404;2023-06-01T04:20:01;15.27;;;6.75;;
36009;SDS011;22076;52.182;5.404;2023-06-01T04:22:32;11.15;;;6.13;;
36009;SDS011;22076;52.182;5.404;2023-06-01T04:24:59;14.20;;;6.65;;
36009;SDS011;22076;52.182;5.404;2023-06-01T04:27:25;13.30;;;6.18;;
36009;SDS011;22076;52.182;5.404;2023-06-01T04:29:52;12.10;;;6.10;;
36009;SDS011;22076;52.182;5.404;2023-06-01T04:32:20;13.02;;;6.25;;
36009;SDS011;22076;52.182;5.404;2023-06-01T04:34:47;15.75;;;6.85;;
36009;SDS011;22076;52.182;5.404;2023-06-01T04:37:14;13.38;;;5.60;;
36009;SDS011;22076;52.182;5.404;2023-06-01T04:39:47;13.43;;;6.50;;
36009;SDS011;22076;52.182;5.404;2023-06-01T04:42:15;12.85;;;7.13;;
36009;SDS011;22076;52.182;5.404;2023-06-01T04:44:43;12.68;;;5.85;;
36009;SDS011;22076;52.182;5.404;2023-06-01T04:47:10;14.50;;;6.43;;
36009;SDS011;22076;52.182;5.404;2023-06-01T04:49:39;14.55;;;6.45;;
36009;SDS011;22076;52.182;5.404;2023-06-01T04:52:06;18.42;;;7.22;;
36009;SDS011;22076;52.182;5.404;2023-06-01T04:54:35;13.27;;;5.82;;
36009;SDS011;22076;52.182;5.404;2023-06-01T04:57:03;14.98;;;6.25;;
36009;SDS011;22076;52.182;5.404;2023-06-01T04:59:31;14.00;;;6.63;;
36009;SDS011;22076;52.182;5.404;2023-06-01T05:01:57;16.30;;;6.63;;
36009;SDS011;22076;52.182;5.404;2023-06-01T05:04:24;15.68;;;7.57;;
36009;SDS011;22076;52.182;5.404;2023-06-01T05:06:51;18.10;;;6.68;;
36009;SDS011;22076;52.182;5.404;2023-06-01T05:09:17;14.10;;;6.60;;
36009;SDS011;22076;52.182;5.404;2023-06-01T05:11:44;17.80;;;7.40;;
36009;SDS011;22076;52.182;5.404;2023-06-01T05:14:13;12.13;;;6.32;;
36009;SDS011;22076;52.182;5.404;2023-06-01T05:16:40;16.83;;;7.85;;
36009;SDS011;22076;52.182;5.404;2023-06-01T05:19:06;13.38;;;7.10;;
36009;SDS011;22076;52.182;5.404;2023-06-01T05:21:33;14.50;;;6.95;;
36009;SDS011;22076;52.182;5.404;2023-06-01T05:23:59;15.32;;;7.80;;
36009;SDS011;22076;52.182;5.404;2023-06-01T05:26:26;14.95;;;6.90;;
36009;SDS011;22076;52.182;5.404;2023-06-01T05:28:52;17.67;;;6.70;;
36009;SDS011;22076;52.182;5.404;2023-06-01T05:31:20;14.57;;;6.95;;
36009;SDS011;22076;52.182;5.404;2023-06-01T05:33:47;15.80;;;7.03;;
36009;SDS011;22076;52.182;5.404;2023-06-01T05:36:13;17.33;;;6.65;;
36009;SDS011;22076;52.182;5.404;2023-06-01T05:38:40;14.65;;;7.20;;
36009;SDS011;22076;52.182;5.404;2023-06-01T05:41:06;12.75;;;6.55;;
36009;SDS011;22076;52.182;5.404;2023-06-01T05:43:34;11.90;;;6.13;;
36009;SDS011;22076;52.182;5.404;2023-06-01T05:46:01;11.05;;;5.90;;
36009;SDS011;22076;52.182;5.404;2023-06-01T05:48:29;13.63;;;7.05;;
36009;SDS011;22076;52.182;5.404;2023-06-01T05:50:55;19.73;;;7.15;;
36009;SDS011;22076;52.182;5.404;2023-06-01T05:53:22;14.40;;;6.03;;
36009;SDS011;22076;52.182;5.404;2023-06-01T05:55:50;21.55;;;7.28;;
36009;SDS011;22076;52.182;5.404;2023-06-01T05:58:17;13.20;;;6.20;;
36009;SDS011;22076;52.182;5.404;2023-06-01T06:00:43;13.18;;;6.18;;
36009;SDS011;22076;52.182;5.404;2023-06-01T06:03:10;15.45;;;7.25;;
36009;SDS011;22076;52.182;5.404;2023-06-01T06:05:38;13.98;;;6.60;;
36009;SDS011;22076;52.182;5.404;2023-06-01T06:08:05;10.98;;;6.30;;
36009;SDS011;22076;52.182;5.404;2023-06-01T06:10:31;13.38;;;6.70;;
36009;SDS011;22076;52.182;5.404;2023-06-01T06:12:58;16.15;;;7.70;;
36009;SDS011;22076;52.182;5.404;2023-06-01T06:15:25;13.75;;;6.20;;
36009;SDS011;22076;52.182;5.404;2023-06-01T06:17:52;16.67;;;7.07;;
36009;SDS011;22076;52.182;5.404;2023-06-01T06:20:18;17.55;;;6.40;;
36009;SDS011;22076;52.182;5.404;2023-06-01T06:22:50;10.60;;;6.43;;
36009;SDS011;22076;52.182;5.404;2023-06-01T06:25:17;16.02;;;7.68;;
36009;SDS011;22076;52.182;5.404;2023-06-01T06:27:45;14.23;;;6.80;;
36009;SDS011;22076;52.182;5.404;2023-06-01T06:30:12;15.40;;;6.40;;
36009;SDS011;22076;52.182;5.404;2023-06-01T06:32:39;20.15;;;8.15;;
36009;SDS011;22076;52.182;5.404;2023-06-01T06:35:06;23.45;;;8.45;;
36009;SDS011;22076;52.182;5.404;2023-06-01T06:37:33;18.45;;;7.15;;
36009;SDS011;22076;52.182;5.404;2023-06-01T06:40:01;14.88;;;7.05;;
36009;SDS011;22076;52.182;5.404;2023-06-01T06:42:29;16.13;;;7.97;;
36009;SDS011;22076;52.182;5.404;2023-06-01T06:44:55;13.93;;;6.30;;
36009;SDS011;22076;52.182;5.404;2023-06-01T06:47:23;18.13;;;8.27;;
36009;SDS011;22076;52.182;5.404;2023-06-01T06:49:50;13.80;;;7.70;;
36009;SDS011;22076;52.182;5.404;2023-06-01T06:52:17;15.18;;;7.22;;
36009;SDS011;22076;52.182;5.404;2023-06-01T06:54:43;19.05;;;8.48;;
36009;SDS011;22076;52.182;5.404;2023-06-01T06:57:11;15.48;;;7.50;;
36009;SDS011;22076;52.182;5.404;2023-06-01T06:59:38;17.95;;;7.22;;
36009;SDS011;22076;52.182;5.404;2023-06-01T07:02:07;15.52;;;7.47;;
36009;SDS011;22076;52.182;5.404;2023-06-01T07:04:33;16.35;;;8.80;;
36009;SDS011;22076;52.182;5.404;2023-06-01T07:07:00;17.35;;;7.75;;
36009;SDS011;22076;52.182;5.404;2023-06-01T07:09:29;23.38;;;7.95;;
36009;SDS011;22076;52.182;5.404;2023-06-01T07:11:55;18.20;;;7.40;;
36009;SDS011;22076;52.182;5.404;2023-06-01T07:14:24;13.20;;;6.57;;
36009;SDS011;22076;52.182;5.404;2023-06-01T07:16:51;18.65;;;7.55;;
36009;SDS011;22076;52.182;5.404;2023-06-01T07:19:17;18.80;;;7.45;;
36009;SDS011;22076;52.182;5.404;2023-06-01T07:21:44;15.10;;;6.50;;
36009;SDS011;22076;52.182;5.404;2023-06-01T07:24:10;14.82;;;6.68;;
36009;SDS011;22076;52.182;5.404;2023-06-01T07:26:37;11.15;;;6.68;;
36009;SDS011;22076;52.182;5.404;2023-06-01T07:29:03;16.38;;;7.18;;
36009;SDS011;22076;52.182;5.404;2023-06-01T07:31:33;15.30;;;6.18;;
36009;SDS011;22076;52.182;5.404;2023-06-01T07:34:01;13.98;;;6.78;;
36009;SDS011;22076;52.182;5.404;2023-06-01T07:36:28;14.55;;;6.68;;
36009;SDS011;22076;52.182;5.404;2023-06-01T07:38:58;12.65;;;5.97;;
36009;SDS011;22076;52.182;5.404;2023-06-01T07:41:25;13.88;;;6.45;;
36009;SDS011;22076;52.182;5.404;2023-06-01T07:43:52;15.18;;;6.07;;
36009;SDS011;22076;52.182;5.404;2023-06-01T07:46:19;13.70;;;5.68;;
36009;SDS011;22076;52.182;5.404;2023-06-01T07:48:46;14.00;;;5.43;;
36009;SDS011;22076;52.182;5.404;2023-06-01T07:51:13;10.60;;;5.63;;
36009;SDS011;22076;52.182;5.404;2023-06-01T07:53:39;11.00;;;5.38;;
36009;SDS011;22076;52.182;5.404;2023-06-01T07:56:06;13.55;;;6.75;;
36009;SDS011;22076;52.182;5.404;2023-06-01T07:58:32;13.27;;;5.95;;
36009;SDS011;22076;52.182;5.404;2023-06-01T08:00:59;9.15;;;5.75;;
36009;SDS011;22076;52.182;5.404;2023-06-01T08:03:26;12.30;;;5.85;;
36009;SDS011;22076;52.182;5.404;2023-06-01T08:05:55;8.70;;;4.90;;
36009;SDS011;22076;52.182;5.404;2023-06-01T08:08:22;10.32;;;5.57;;
36009;SDS011;22076;52.182;5.404;2023-06-01T08:10:49;10.88;;;5.85;;
36009;SDS011;22076;52.182;5.404;2023-06-01T08:13:16;16.08;;;6.72;;
36009;SDS011;22076;52.182;5.404;2023-06-01T08:15:43;13.63;;;5.88;;
36009;SDS011;22076;52.182;5.404;2023-06-01T08:18:12;10.65;;;5.05;;
36009;SDS011;22076;52.182;5.404;2023-06-01T08:20:39;8.88;;;5.20;;
36009;SDS011;22076;52.182;5.404;2023-06-01T08:23:10;10.73;;;5.20;;
36009;SDS011;22076;52.182;5.404;2023-06-01T08:25:37;12.63;;;6.30;;
36009;SDS011;22076;52.182;5.404;2023-06-01T08:28:04;13.00;;;4.97;;
36009;SDS011;22076;52.182;5.404;2023-06-01T08:30:31;11.70;;;5.93;;
36009;SDS011;22076;52.182;5.404;2023-06-01T08:32:57;9.80;;;5.50;;
36009;SDS011;22076;52.182;5.404;2023-06-01T08:35:24;9.70;;;5.50;;
36009;SDS011;22076;52.182;5.404;2023-06-01T08:37:51;12.48;;;5.40;;
36009;SDS011;22076;52.182;5.404;2023-06-01T08:40:19;13.40;;;6.40;;
36009;SDS011;22076;52.182;5.404;2023-06-01T08:42:46;10.93;;;5.85;;
36009;SDS011;22076;52.182;5.404;2023-06-01T08:45:16;11.23;;;5.70;;
36009;SDS011;22076;52.182;5.404;2023-06-01T08:47:43;8.70;;;5.45;;
36009;SDS011;22076;52.182;5.404;2023-06-01T08:50:13;13.02;;;6.22;;
36009;SDS011;22076;52.182;5.404;2023-06-01T08:52:41;11.48;;;5.68;;
36009;SDS011;22076;52.182;5.404;2023-06-01T08:55:09;12.20;;;5.78;;
36009;SDS011;22076;52.182;5.404;2023-06-01T08:57:38;8.48;;;5.13;;
36009;SDS011;22076;52.182;5.404;2023-06-01T09:00:06;11.60;;;5.40;;
36009;SDS011;22076;52.182;5.404;2023-06-01T09:02:34;16.08;;;6.13;;
36009;SDS011;22076;52.182;5.404;2023-06-01T09:05:01;9.40;;;5.07;;
36009;SDS011;22076;52.182;5.404;2023-06-01T09:07:28;12.45;;;5.03;;
36009;SDS011;22076;52.182;5.404;2023-06-01T09:09:56;12.88;;;5.15;;
36009;SDS011;22076;52.182;5.404;2023-06-01T09:12:23;12.63;;;4.40;;
36009;SDS011;22076;52.182;5.404;2023-06-01T09:15:08;8.23;;;4.90;;
36009;SDS011;22076;52.182;5.404;2023-06-01T09:17:36;11.05;;;5.30;;
36009;SDS011;22076;52.182;5.404;2023-06-01T09:20:03;13.73;;;5.57;;
36009;SDS011;22076;52.182;5.404;2023-06-01T09:22:40;10.82;;;4.40;;
36009;SDS011;22076;52.182;5.404;2023-06-01T09:25:08;8.73;;;4.53;;
36009;SDS011;22076;52.182;5.404;2023-06-01T09:27:42;10.18;;;4.88;;
36009;SDS011;22076;52.182;5.404;2023-06-01T09:30:12;8.98;;;4.78;;
36009;SDS011;22076;52.182;5.404;2023-06-01T09:32:40;9.55;;;4.68;;
36009;SDS011;22076;52.182;5.404;2023-06-01T09:35:07;9.40;;;4.93;;
36009;SDS011;22076;52.182;5.404;2023-06-01T09:37:34;10.93;;;5.20;;
36009;SDS011;22076;52.182;5.404;2023-06-01T09:40:02;14.75;;;5.85;;
36009;SDS011;22076;52.182;5.404;2023-06-01T09:42:42;13.48;;;5.15;;
36009;SDS011;22076;52.182;5.404;2023-06-01T09:45:14;11.60;;;5.63;;
36009;SDS011;22076;52.182;5.404;2023-06-01T09:47:42;11.02;;;5.97;;
36009;SDS011;22076;52.182;5.404;2023-06-01T09:50:09;9.27;;;5.10;;
36009;SDS011;22076;52.182;5.404;2023-06-01T09:52:36;10.05;;;5.50;;
36009;SDS011;22076;52.182;5.404;2023-06-01T09:55:06;14.05;;;6.07;;
36009;SDS011;22076;52.182;5.404;2023-06-01T09:57:34;14.30;;;5.65;;
36009;SDS011;22076;52.182;5.404;2023-06-01T10:00:00;11.07;;;5.18;;
36009;SDS011;22076;52.182;5.404;2023-06-01T10:02:29;13.43;;;4.95;;
36009;SDS011;22076;52.182;5.404;2023-06-01T10:04:56;12.35;;;6.15;;
36009;SDS011;22076;52.182;5.404;2023-06-01T10:07:25;16.15;;;5.05;;
36009;SDS011;22076;52.182;5.404;2023-06-01T10:09:53;13.63;;;5.45;;
36009;SDS011;22076;52.182;5.404;2023-06-01T10:12:21;11.38;;;5.25;;
36009;SDS011;22076;52.182;5.404;2023-06-01T10:14:47;13.50;;;5.25;;
36009;SDS011;22076;52.182;5.404;2023-06-01T10:17:15;16.63;;;5.53;;
36009;SDS011;22076;52.182;5.404;2023-06-01T10:19:43;9.73;;;5.22;;
36009;SDS011;22076;52.182;5.404;2023-06-01T10:22:10;11.45;;;5.30;;
36009;SDS011;22076;52.182;5.404;2023-06-01T10:24:37;10.52;;;5.20;;
36009;SDS011;22076;52.182;5.404;2023-06-01T10:27:08;10.18;;;4.78;;
36009;SDS011;22076;52.182;5.404;2023-06-01T10:32:09;11.63;;;5.80;;
36009;SDS011;22076;52.182;5.404;2023-06-01T10:38:26;10.75;;;4.43;;
36009;SDS011;22076;52.182;5.404;2023-06-01T10:40:52;11.95;;;4.68;;
36009;SDS011;22076;52.182;5.404;2023-06-01T10:46:33;11.82;;;4.50;;
36009;SDS011;22076;52.182;5.404;2023-06-01T10:49:08;11.52;;;4.18;;
36009;SDS011;22076;52.182;5.404;2023-06-01T10:51:34;10.52;;;3.47;;
36009;SDS011;22076;52.182;5.404;2023-06-01T11:00:08;7.75;;;3.63;;
36009;SDS011;22076;52.182;5.404;2023-06-01T11:02:51;9.90;;;4.25;;
36009;SDS011;22076;52.182;5.404;2023-06-01T11:05:40;10.15;;;3.50;;
36009;SDS011;22076;52.182;5.404;2023-06-01T11:11:15;6.97;;;3.08;;
36009;SDS011;22076;52.182;5.404;2023-06-01T11:13:42;7.60;;;3.72;;
36009;SDS011;22076;52.182;5.404;2023-06-01T11:16:30;5.75;;;2.70;;
36009;SDS011;22076;52.182;5.404;2023-06-01T11:18:57;11.77;;;3.95;;
36009;SDS011;22076;52.182;5.404;2023-06-01T11:21:26;6.95;;;3.47;;
36009;SDS011;22076;52.182;5.404;2023-06-01T11:23:54;9.05;;;3.30;;
36009;SDS011;22076;52.182;5.404;2023-06-01T11:26:22;11.30;;;3.83;;
36009;SDS011;22076;52.182;5.404;2023-06-01T11:28:51;11.73;;;3.95;;
36009;SDS011;22076;52.182;5.404;2023-06-01T11:31:18;8.77;;;3.55;;
36009;SDS011;22076;52.182;5.404;2023-06-01T11:33:47;10.27;;;3.50;;
36009;SDS011;22076;52.182;5.404;2023-06-01T11:36:15;5.97;;;3.60;;
36009;SDS011;22076;52.182;5.404;2023-06-01T11:38:43;10.13;;;3.40;;
36009;SDS011;22076;52.182;5.404;2023-06-01T11:41:10;7.28;;;3.55;;
36009;SDS011;22076;52.182;5.404;2023-06-01T11:43:36;6.25;;;3.45;;
36009;SDS011;22076;52.182;5.404;2023-06-01T11:46:03;6.20;;;3.38;;
36009;SDS011;22076;52.182;5.404;2023-06-01T11:48:30;6.80;;;3.47;;
36009;SDS011;22076;52.182;5.404;2023-06-01T11:50:57;6.05;;;3.22;;
36009;SDS011;22076;52.182;5.404;2023-06-01T11:53:24;7.78;;;3.50;;
36009;SDS011;22076;52.182;5.404;2023-06-01T11:55:52;8.40;;;3.30;;
36009;SDS011;22076;52.182;5.404;2023-06-01T11:58:20;7.10;;;2.97;;
36009;SDS011;22076;52.182;5.404;2023-06-01T12:00:47;5.85;;;3.47;;
36009;SDS011;22076;52.182;5.404;2023-06-01T12:03:14;6.72;;;3.53;;
36009;SDS011;22076;52.182;5.404;2023-06-01T12:05:41;11.75;;;3.67;;
36009;SDS011;22076;52.182;5.404;2023-06-01T12:08:13;7.65;;;3.20;;
36009;SDS011;22076;52.182;5.404;2023-06-01T12:10:41;9.10;;;2.80;;
36009;SDS011;22076;52.182;5.404;2023-06-01T12:13:10;7.03;;;2.67;;
36009;SDS011;22076;52.182;5.404;2023-06-01T12:15:37;7.35;;;3.13;;
36009;SDS011;22076;52.182;5.404;2023-06-01T12:18:04;7.63;;;3.22;;
36009;SDS011;22076;52.182;5.404;2023-06-01T12:20:31;8.10;;;3.63;;
36009;SDS011;22076;52.182;5.404;2023-06-01T12:22:58;6.30;;;3.10;;
36009;SDS011;22076;52.182;5.404;2023-06-01T12:25:28;7.32;;;3.35;;
36009;SDS011;22076;52.182;5.404;2023-06-01T12:27:59;6.28;;;3.05;;
36009;SDS011;22076;52.182;5.404;2023-06-01T12:30:28;7.13;;;3.00;;
36009;SDS011;22076;52.182;5.404;2023-06-01T12:32:54;12.85;;;3.38;;
36009;SDS011;22076;52.182;5.404;2023-06-01T12:35:22;6.15;;;3.13;;
36009;SDS011;22076;52.182;5.404;2023-06-01T12:38:02;5.55;;;3.28;;
36009;SDS011;22076;52.182;5.404;2023-06-01T12:40:29;9.00;;;3.28;;
36009;SDS011;22076;52.182;5.404;2023-06-01T12:42:56;5.70;;;3.13;;
36009;SDS011;22076;52.182;5.404;2023-06-01T12:45:23;5.55;;;2.67;;
36009;SDS011;22076;52.182;5.404;2023-06-01T12:47:51;6.70;;;2.75;;
36009;SDS011;22076;52.182;5.404;2023-06-01T12:50:17;5.32;;;3.00;;
36009;SDS011;22076;52.182;5.404;2023-06-01T12:52:44;5.45;;;2.60;;
36009;SDS011;22076;52.182;5.404;2023-06-01T12:55:10;6.53;;;2.58;;
36009;SDS011;22076;52.182;5.404;2023-06-01T12:57:37;3.40;;;2.22;;
36009;SDS011;22076;52.182;5.404;2023-06-01T13:00:04;7.53;;;2.50;;
36009;SDS011;22076;52.182;5.404;2023-06-01T13:02:31;3.90;;;2.60;;
36009;SDS011;22076;52.182;5.404;2023-06-01T13:05:01;5.78;;;2.33;;
36009;SDS011;22076;52.182;5.404;2023-06-01T13:07:27;6.53;;;2.33;;
36009;SDS011;22076;52.182;5.404;2023-06-01T13:09:54;8.25;;;3.20;;
36009;SDS011;22076;52.182;5.404;2023-06-01T13:12:22;6.63;;;3.00;;
36009;SDS011;22076;52.182;5.404;2023-06-01T13:14:49;5.05;;;2.58;;
36009;SDS011;22076;52.182;5.404;2023-06-01T13:17:15;4.72;;;2.50;;
36009;SDS011;22076;52.182;5.404;2023-06-01T13:19:42;6.78;;;2.53;;
36009;SDS011;22076;52.182;5.404;2023-06-01T13:22:10;5.72;;;2.17;;
36009;SDS011;22076;52.182;5.404;2023-06-01T13:24:36;5.00;;;2.42;;
36009;SDS011;22076;52.182;5.404;2023-06-01T13:27:03;6.65;;;2.15;;
36009;SDS011;22076;52.182;5.404;2023-06-01T13:29:32;5.30;;;2.47;;
36009;SDS011;22076;52.182;5.404;2023-06-01T13:31:58;6.82;;;2.90;;
36009;SDS011;22076;52.182;5.404;2023-06-01T13:34:25;7.43;;;2.75;;
36009;SDS011;22076;52.182;5.404;2023-06-01T13:36:51;5.72;;;2.33;;
36009;SDS011;22076;52.182;5.404;2023-06-01T13:39:19;4.63;;;2.40;;
36009;SDS011;22076;52.182;5.404;2023-06-01T13:41:46;4.25;;;2.20;;
36009;SDS011;22076;52.182;5.404;2023-06-01T13:44:13;4.78;;;2.20;;
36009;SDS011;22076;52.182;5.404;2023-06-01T13:46:40;3.95;;;1.83;;
36009;SDS011;22076;52.182;5.404;2023-06-01T13:49:06;2.55;;;1.85;;
36009;SDS011;22076;52.182;5.404;2023-06-01T13:51:33;2.85;;;1.83;;
36009;SDS011;22076;52.182;5.404;2023-06-01T13:54:03;3.20;;;1.83;;
36009;SDS011;22076;52.182;5.404;2023-06-01T13:56:31;2.08;;;1.55;;
36009;SDS011;22076;52.182;5.404;2023-06-01T13:58:58;2.85;;;1.88;;
36009;SDS011;22076;52.182;5.404;2023-06-01T14:01:24;7.18;;;2.25;;
36009;SDS011;22076;52.182;5.404;2023-06-01T14:03:51;5.07;;;1.83;;
36009;SDS011;22076;52.182;5.404;2023-06-01T14:06:18;2.58;;;1.55;;
36009;SDS011;22076;52.182;5.404;2023-06-01T14:08:45;6.97;;;1.88;;
36009;SDS011;22076;52.182;5.404;2023-06-01T14:11:13;3.88;;;2.00;;
36009;SDS011;22076;52.182;5.404;2023-06-01T14:13:41;2.97;;;1.85;;
36009;SDS011;22076;52.182;5.404;2023-06-01T14:16:08;4.53;;;1.50;;
36009;SDS011;22076;52.182;5.404;2023-06-01T14:18:34;2.15;;;1.65;;
36009;SDS011;22076;52.182;5.404;2023-06-01T14:21:01;1.75;;;1.20;;
36009;SDS011;22076;52.182;5.404;2023-06-01T14:23:27;2.42;;;1.55;;
36009;SDS011;22076;52.182;5.404;2023-06-01T14:25:54;8.40;;;1.60;;
36009;SDS011;22076;52.182;5.404;2023-06-01T14:28:21;2.80;;;1.60;;
36009;SDS011;22076;52.182;5.404;2023-06-01T14:30:48;3.70;;;1.70;;
36009;SDS011;22076;52.182;5.404;2023-06-01T14:33:15;2.50;;;1.60;;
36009;SDS011;22076;52.182;5.404;2023-06-01T14:35:42;5.53;;;1.73;;
36009;SDS011;22076;52.182;5.404;2023-06-01T14:38:09;5.03;;;2.05;;
36009;SDS011;22076;52.182;5.404;2023-06-01T14:40:36;3.17;;;1.50;;
36009;SDS011;22076;52.182;5.404;2023-06-01T14:43:03;3.25;;;2.10;;
36009;SDS011;22076;52.182;5.404;2023-06-01T14:45:29;3.03;;;1.70;;
36009;SDS011;22076;52.182;5.404;2023-06-01T14:47:58;2.67;;;1.48;;
36009;SDS011;22076;52.182;5.404;2023-06-01T14:50:24;4.80;;;1.73;;
36009;SDS011;22076;52.182;5.404;2023-06-01T14:52:51;2.22;;;2.03;;
36009;SDS011;22076;52.182;5.404;2023-06-01T14:55:22;3.67;;;1.67;;
36009;SDS011;22076;52.182;5.404;2023-06-01T14:57:49;2.53;;;1.63;;
36009;SDS011;22076;52.182;5.404;2023-06-01T15:00:16;5.28;;;1.90;;
36009;SDS011;22076;52.182;5.404;2023-06-01T15:02:43;5.57;;;2.00;;